sensor_id;sensor_type;location;lat;lon;timestamp;temperature;humidity
20732;DHT22;10527;52.124;5.196;2023-04-16T00:00:24;8.60;99.90
20732;DHT22;10527;52.124;5.196;2023-04-16T00:02:51;8.60;99.90
20732;DHT22;10527;52.124;5.196;2023-04-16T00:05:18;8.70;99.90
20732;DHT22;10527;52.124;5.196;2023-04-16T00:07:44;8.70;99.90
20732;DHT22;10527;52.124;5.196;2023-04-16T00:10:11;8.60;99.90
20732;DHT22;10527;52.124;5.196;2023-04-16T00:12:38;8.70;99.90
20732;DHT22;10527;52.124;5.196;2023-04-16T00:15:06;8.70;99.90
20732;DHT22;10527;52.124;5.196;2023-04-16T00:17:33;8.60;99.90
20732;DHT22;10527;52.124;5.196;2023-04-16T00:20:01;8.60;99.90
20732;DHT22;10527;52.124;5.196;2023-04-16T00:22:27;8.60;99.90
20732;DHT22;10527;52.124;5.196;2023-04-16T00:24:54;8.60;99.90
20732;DHT22;10527;52.124;5.196;2023-04-16T00:27:21;8.70;99.90
20732;DHT22;10527;52.124;5.196;2023-04-16T00:29:48;8.60;99.90
20732;DHT22;10527;52.124;5.196;2023-04-16T00:32:15;8.60;99.90
20732;DHT22;10527;52.124;5.196;2023-04-16T00:34:42;8.60;99.90
20732;DHT22;10527;52.124;5.196;2023-04-16T00:37:08;8.60;99.90
20732;DHT22;10527;52.124;5.196;2023-04-16T00:39:35;8.60;99.90
20732;DHT22;10527;52.124;5.196;2023-04-16T00:42:03;8.60;99.90
20732;DHT22;10527;52.124;5.196;2023-04-16T00:44:29;8.60;99.90
20732;DHT22;10527;52.124;5.196;2023-04-16T00:46:57;8.60;99.90
20732;DHT22;10527;52.124;5.196;2023-04-16T00:49:24;8.60;99.90
20732;DHT22;10527;52.124;5.196;2023-04-16T00:51:51;8.60;99.90
20732;DHT22;10527;52.124;5.196;2023-04-16T00:54:18;8.60;99.90
20732;DHT22;10527;52.124;5.196;2023-04-16T00:56:47;8.50;99.90
20732;DHT22;10527;52.124;5.196;2023-04-16T00:59:15;8.50;99.90
20732;DHT22;10527;52.124;5.196;2023-04-16T01:01:42;8.60;99.90
20732;DHT22;10527;52.124;5.196;2023-04-16T01:04:09;8.60;99.90
20732;DHT22;10527;52.124;5.196;2023-04-16T01:06:36;8.60;99.90
20732;DHT22;10527;52.124;5.196;2023-04-16T01:09:03;8.70;99.90
20732;DHT22;10527;52.124;5.196;2023-04-16T01:11:31;8.60;99.90
20732;DHT22;10527;52.124;5.196;2023-04-16T01:13:58;8.60;99.90
20732;DHT22;10527;52.124;5.196;2023-04-16T01:16:24;8.60;99.90
20732;DHT22;10527;52.124;5.196;2023-04-16T01:18:52;8.60;99.90
20732;DHT22;10527;52.124;5.196;2023-04-16T01:21:19;8.70;99.90
20732;DHT22;10527;52.124;5.196;2023-04-16T01:23:47;8.70;99.90
20732;DHT22;10527;52.124;5.196;2023-04-16T01:26:14;8.70;99.90
20732;DHT22;10527;52.124;5.196;2023-04-16T01:28:41;8.60;99.90
20732;DHT22;10527;52.124;5.196;2023-04-16T01:31:10;8.80;99.90
20732;DHT22;10527;52.124;5.196;2023-04-16T01:33:38;8.80;99.90
20732;DHT22;10527;52.124;5.196;2023-04-16T01:36:05;8.80;99.90
20732;DHT22;10527;52.124;5.196;2023-04-16T01:38:32;8.80;99.90
20732;DHT22;10527;52.124;5.196;2023-04-16T01:40:58;8.80;99.90
20732;DHT22;10527;52.124;5.196;2023-04-16T01:43:25;8.90;99.90
20732;DHT22;10527;52.124;5.196;2023-04-16T01:46:06;8.90;99.90
20732;DHT22;10527;52.124;5.196;2023-04-16T01:48:39;8.90;99.90
20732;DHT22;10527;52.124;5.196;2023-04-16T01:51:06;8.90;99.90
20732;DHT22;10527;52.124;5.196;2023-04-16T01:53:33;8.90;99.90
20732;DHT22;10527;52.124;5.196;2023-04-16T01:56:02;8.90;99.90
20732;DHT22;10527;52.124;5.196;2023-04-16T01:58:31;8.80;99.90
20732;DHT22;10527;52.124;5.196;2023-04-16T02:00:58;8.80;99.90
20732;DHT22;10527;52.124;5.196;2023-04-16T02:03:25;8.90;99.90
20732;DHT22;10527;52.124;5.196;2023-04-16T02:05:52;8.90;99.90
20732;DHT22;10527;52.124;5.196;2023-04-16T02:08:19;8.90;99.90
20732;DHT22;10527;52.124;5.196;2023-04-16T02:10:47;8.90;99.90
20732;DHT22;10527;52.124;5.196;2023-04-16T02:13:15;8.90;99.90
20732;DHT22;10527;52.124;5.196;2023-04-16T02:15:46;8.90;99.90
20732;DHT22;10527;52.124;5.196;2023-04-16T02:18:16;8.90;99.90
20732;DHT22;10527;52.124;5.196;2023-04-16T02:20:45;8.90;99.90
20732;DHT22;10527;52.124;5.196;2023-04-16T02:23:12;8.90;99.90
20732;DHT22;10527;52.124;5.196;2023-04-16T02:25:46;8.90;99.90
20732;DHT22;10527;52.124;5.196;2023-04-16T02:28:14;9.00;99.90
20732;DHT22;10527;52.124;5.196;2023-04-16T02:30:42;8.90;99.90
20732;DHT22;10527;52.124;5.196;2023-04-16T02:33:11;8.80;99.90
20732;DHT22;10527;52.124;5.196;2023-04-16T02:35:38;8.90;99.90
20732;DHT22;10527;52.124;5.196;2023-04-16T02:38:06;8.90;99.90
20732;DHT22;10527;52.124;5.196;2023-04-16T02:40:33;8.90;99.90
20732;DHT22;10527;52.124;5.196;2023-04-16T02:43:00;8.80;99.90
20732;DHT22;10527;52.124;5.196;2023-04-16T02:45:29;8.80;99.90
20732;DHT22;10527;52.124;5.196;2023-04-16T02:47:57;8.90;99.90
20732;DHT22;10527;52.124;5.196;2023-04-16T02:50:25;8.80;99.90
20732;DHT22;10527;52.124;5.196;2023-04-16T02:52:52;8.70;99.90
20732;DHT22;10527;52.124;5.196;2023-04-16T02:55:19;8.80;99.90
20732;DHT22;10527;52.124;5.196;2023-04-16T02:57:46;8.80;99.90
20732;DHT22;10527;52.124;5.196;2023-04-16T03:00:12;8.80;99.90
20732;DHT22;10527;52.124;5.196;2023-04-16T03:02:40;8.70;99.90
20732;DHT22;10527;52.124;5.196;2023-04-16T03:05:08;8.80;99.90
20732;DHT22;10527;52.124;5.196;2023-04-16T03:07:35;8.90;99.90
20732;DHT22;10527;52.124;5.196;2023-04-16T03:10:06;8.80;99.90
20732;DHT22;10527;52.124;5.196;2023-04-16T03:12:33;8.70;99.90
20732;DHT22;10527;52.124;5.196;2023-04-16T03:15:00;8.70;99.90
20732;DHT22;10527;52.124;5.196;2023-04-16T03:17:28;8.70;99.90
20732;DHT22;10527;52.124;5.196;2023-04-16T03:19:54;8.70;99.90
20732;DHT22;10527;52.124;5.196;2023-04-16T03:22:21;8.70;99.90
20732;DHT22;10527;52.124;5.196;2023-04-16T03:24:48;8.70;99.90
20732;DHT22;10527;52.124;5.196;2023-04-16T03:27:15;8.80;99.90
20732;DHT22;10527;52.124;5.196;2023-04-16T03:29:42;8.70;99.90
20732;DHT22;10527;52.124;5.196;2023-04-16T03:32:09;8.70;99.90
20732;DHT22;10527;52.124;5.196;2023-04-16T03:34:37;8.70;99.90
20732;DHT22;10527;52.124;5.196;2023-04-16T03:37:04;8.60;99.90
20732;DHT22;10527;52.124;5.196;2023-04-16T03:39:32;8.60;99.90
20732;DHT22;10527;52.124;5.196;2023-04-16T03:42:00;8.60;99.90
20732;DHT22;10527;52.124;5.196;2023-04-16T03:44:28;8.60;99.90
20732;DHT22;10527;52.124;5.196;2023-04-16T03:46:55;8.60;99.90
20732;DHT22;10527;52.124;5.196;2023-04-16T03:49:22;8.60;99.90
20732;DHT22;10527;52.124;5.196;2023-04-16T03:51:50;8.50;99.90
20732;DHT22;10527;52.124;5.196;2023-04-16T03:54:18;8.60;99.90
20732;DHT22;10527;52.124;5.196;2023-04-16T03:56:48;8.60;99.90
20732;DHT22;10527;52.124;5.196;2023-04-16T03:59:15;8.60;99.90
20732;DHT22;10527;52.124;5.196;2023-04-16T04:01:42;8.50;99.90
20732;DHT22;10527;52.124;5.196;2023-04-16T04:04:08;8.50;99.90
20732;DHT22;10527;52.124;5.196;2023-04-16T04:06:36;8.60;99.90
20732;DHT22;10527;52.124;5.196;2023-04-16T04:09:03;8.60;99.90
20732;DHT22;10527;52.124;5.196;2023-04-16T04:11:30;8.60;99.90
20732;DHT22;10527;52.124;5.196;2023-04-16T04:13:59;8.60;99.90
20732;DHT22;10527;52.124;5.196;2023-04-16T04:16:26;8.60;99.90
20732;DHT22;10527;52.124;5.196;2023-04-16T04:18:53;8.70;99.90
20732;DHT22;10527;52.124;5.196;2023-04-16T04:21:21;8.60;99.90
20732;DHT22;10527;52.124;5.196;2023-04-16T04:23:48;8.70;99.90
20732;DHT22;10527;52.124;5.196;2023-04-16T04:26:15;8.60;99.90
20732;DHT22;10527;52.124;5.196;2023-04-16T04:28:41;8.60;99.90
20732;DHT22;10527;52.124;5.196;2023-04-16T04:31:11;8.60;99.90
20732;DHT22;10527;52.124;5.196;2023-04-16T04:33:40;8.60;99.90
20732;DHT22;10527;52.124;5.196;2023-04-16T04:36:07;8.70;99.90
20732;DHT22;10527;52.124;5.196;2023-04-16T04:38:33;8.60;99.90
20732;DHT22;10527;52.124;5.196;2023-04-16T04:41:00;8.60;99.90
20732;DHT22;10527;52.124;5.196;2023-04-16T04:43:28;8.60;99.90
20732;DHT22;10527;52.124;5.196;2023-04-16T04:45:55;8.60;99.90
20732;DHT22;10527;52.124;5.196;2023-04-16T04:48:22;8.60;99.90
20732;DHT22;10527;52.124;5.196;2023-04-16T04:50:52;8.50;99.90
20732;DHT22;10527;52.124;5.196;2023-04-16T04:53:19;8.50;99.90
20732;DHT22;10527;52.124;5.196;2023-04-16T04:55:46;8.60;99.90
20732;DHT22;10527;52.124;5.196;2023-04-16T04:58:18;8.60;99.90
20732;DHT22;10527;52.124;5.196;2023-04-16T05:00:47;8.60;99.90
20732;DHT22;10527;52.124;5.196;2023-04-16T05:03:18;8.60;99.90
20732;DHT22;10527;52.124;5.196;2023-04-16T05:05:47;8.60;99.90
20732;DHT22;10527;52.124;5.196;2023-04-16T05:08:15;8.60;99.90
20732;DHT22;10527;52.124;5.196;2023-04-16T05:10:41;8.60;99.90
20732;DHT22;10527;52.124;5.196;2023-04-16T05:13:08;8.60;99.90
20732;DHT22;10527;52.124;5.196;2023-04-16T05:15:35;8.60;99.90
20732;DHT22;10527;52.124;5.196;2023-04-16T05:18:02;8.60;99.90
20732;DHT22;10527;52.124;5.196;2023-04-16T05:20:28;8.70;99.90
20732;DHT22;10527;52.124;5.196;2023-04-16T05:22:55;8.70;99.90
20732;DHT22;10527;52.124;5.196;2023-04-16T05:25:22;8.60;99.90
20732;DHT22;10527;52.124;5.196;2023-04-16T05:27:49;8.70;99.90
20732;DHT22;10527;52.124;5.196;2023-04-16T05:30:16;8.70;99.90
20732;DHT22;10527;52.124;5.196;2023-04-16T05:32:42;8.70;99.90
20732;DHT22;10527;52.124;5.196;2023-04-16T05:35:09;8.70;99.90
20732;DHT22;10527;52.124;5.196;2023-04-16T05:37:36;8.70;99.90
20732;DHT22;10527;52.124;5.196;2023-04-16T05:40:05;8.60;99.90
20732;DHT22;10527;52.124;5.196;2023-04-16T05:42:32;8.70;99.90
20732;DHT22;10527;52.124;5.196;2023-04-16T05:45:00;8.70;99.90
20732;DHT22;10527;52.124;5.196;2023-04-16T05:47:30;8.70;99.90
20732;DHT22;10527;52.124;5.196;2023-04-16T05:49:57;8.80;99.90
20732;DHT22;10527;52.124;5.196;2023-04-16T05:52:23;8.80;99.90
20732;DHT22;10527;52.124;5.196;2023-04-16T05:54:50;8.80;99.90
20732;DHT22;10527;52.124;5.196;2023-04-16T05:57:17;8.70;99.90
20732;DHT22;10527;52.124;5.196;2023-04-16T05:59:43;8.80;99.90
20732;DHT22;10527;52.124;5.196;2023-04-16T06:02:10;8.80;99.90
20732;DHT22;10527;52.124;5.196;2023-04-16T06:04:37;8.80;99.90
20732;DHT22;10527;52.124;5.196;2023-04-16T06:07:05;8.80;99.90
20732;DHT22;10527;52.124;5.196;2023-04-16T06:09:32;8.90;99.90
20732;DHT22;10527;52.124;5.196;2023-04-16T06:11:59;8.80;99.90
20732;DHT22;10527;52.124;5.196;2023-04-16T06:14:26;8.90;99.90
20732;DHT22;10527;52.124;5.196;2023-04-16T06:16:53;8.90;99.90
20732;DHT22;10527;52.124;5.196;2023-04-16T06:19:20;8.90;99.90
20732;DHT22;10527;52.124;5.196;2023-04-16T06:21:47;8.90;99.90
20732;DHT22;10527;52.124;5.196;2023-04-16T06:24:14;8.90;99.90
20732;DHT22;10527;52.124;5.196;2023-04-16T06:26:40;8.90;99.90
20732;DHT22;10527;52.124;5.196;2023-04-16T06:29:07;8.90;99.90
20732;DHT22;10527;52.124;5.196;2023-04-16T06:31:37;8.90;99.90
20732;DHT22;10527;52.124;5.196;2023-04-16T06:34:07;9.00;99.90
20732;DHT22;10527;52.124;5.196;2023-04-16T06:36:35;9.00;99.90
20732;DHT22;10527;52.124;5.196;2023-04-16T06:39:03;9.10;99.90
20732;DHT22;10527;52.124;5.196;2023-04-16T06:41:30;9.10;99.90
20732;DHT22;10527;52.124;5.196;2023-04-16T06:43:57;9.00;99.90
20732;DHT22;10527;52.124;5.196;2023-04-16T06:46:23;9.10;99.90
20732;DHT22;10527;52.124;5.196;2023-04-16T06:48:50;9.10;99.90
20732;DHT22;10527;52.124;5.196;2023-04-16T06:51:17;9.10;99.90
20732;DHT22;10527;52.124;5.196;2023-04-16T06:53:44;9.20;99.90
20732;DHT22;10527;52.124;5.196;2023-04-16T06:56:11;9.10;99.90
20732;DHT22;10527;52.124;5.196;2023-04-16T06:58:38;9.10;99.90
20732;DHT22;10527;52.124;5.196;2023-04-16T07:01:04;9.20;99.90
20732;DHT22;10527;52.124;5.196;2023-04-16T07:03:31;9.10;99.90
20732;DHT22;10527;52.124;5.196;2023-04-16T07:05:58;9.20;99.90
20732;DHT22;10527;52.124;5.196;2023-04-16T07:08:25;9.10;99.90
20732;DHT22;10527;52.124;5.196;2023-04-16T07:10:55;9.10;99.90
20732;DHT22;10527;52.124;5.196;2023-04-16T07:13:22;9.20;99.90
20732;DHT22;10527;52.124;5.196;2023-04-16T07:15:49;9.10;99.90
20732;DHT22;10527;52.124;5.196;2023-04-16T07:18:16;9.10;99.90
20732;DHT22;10527;52.124;5.196;2023-04-16T07:20:44;9.20;99.90
20732;DHT22;10527;52.124;5.196;2023-04-16T07:23:11;9.20;99.90
20732;DHT22;10527;52.124;5.196;2023-04-16T07:25:38;9.10;99.90
20732;DHT22;10527;52.124;5.196;2023-04-16T07:28:06;9.20;99.90
20732;DHT22;10527;52.124;5.196;2023-04-16T07:30:33;9.20;99.90
20732;DHT22;10527;52.124;5.196;2023-04-16T07:33:04;9.20;99.90
20732;DHT22;10527;52.124;5.196;2023-04-16T07:35:31;9.20;99.90
20732;DHT22;10527;52.124;5.196;2023-04-16T07:37:58;9.20;99.90
20732;DHT22;10527;52.124;5.196;2023-04-16T07:40:25;9.20;99.90
20732;DHT22;10527;52.124;5.196;2023-04-16T07:42:53;9.20;99.90
20732;DHT22;10527;52.124;5.196;2023-04-16T07:45:23;9.30;99.90
20732;DHT22;10527;52.124;5.196;2023-04-16T07:47:50;9.30;99.90
20732;DHT22;10527;52.124;5.196;2023-04-16T07:50:16;9.20;99.90
20732;DHT22;10527;52.124;5.196;2023-04-16T07:52:46;9.30;99.90
20732;DHT22;10527;52.124;5.196;2023-04-16T07:55:13;9.20;99.90
20732;DHT22;10527;52.124;5.196;2023-04-16T07:57:40;9.20;99.90
20732;DHT22;10527;52.124;5.196;2023-04-16T08:00:10;9.30;99.90
20732;DHT22;10527;52.124;5.196;2023-04-16T08:02:37;9.20;99.90
20732;DHT22;10527;52.124;5.196;2023-04-16T08:05:05;9.20;99.90
20732;DHT22;10527;52.124;5.196;2023-04-16T08:07:32;9.30;99.90
20732;DHT22;10527;52.124;5.196;2023-04-16T08:10:00;9.30;99.90
20732;DHT22;10527;52.124;5.196;2023-04-16T08:12:28;9.30;99.90
20732;DHT22;10527;52.124;5.196;2023-04-16T08:14:56;9.30;99.90
20732;DHT22;10527;52.124;5.196;2023-04-16T08:17:23;9.40;99.90
20732;DHT22;10527;52.124;5.196;2023-04-16T08:19:53;9.40;99.90
20732;DHT22;10527;52.124;5.196;2023-04-16T08:22:19;9.50;99.90
20732;DHT22;10527;52.124;5.196;2023-04-16T08:24:48;9.50;99.90
20732;DHT22;10527;52.124;5.196;2023-04-16T08:27:14;9.60;99.90
20732;DHT22;10527;52.124;5.196;2023-04-16T08:29:45;9.50;99.90
20732;DHT22;10527;52.124;5.196;2023-04-16T08:32:21;9.50;99.90
20732;DHT22;10527;52.124;5.196;2023-04-16T08:34:48;9.50;99.90
20732;DHT22;10527;52.124;5.196;2023-04-16T08:37:15;9.50;99.90
20732;DHT22;10527;52.124;5.196;2023-04-16T08:39:42;9.60;99.90
20732;DHT22;10527;52.124;5.196;2023-04-16T08:42:17;9.50;99.90
20732;DHT22;10527;52.124;5.196;2023-04-16T08:47:40;9.50;99.90
20732;DHT22;10527;52.124;5.196;2023-04-16T08:50:13;9.50;99.90
20732;DHT22;10527;52.124;5.196;2023-04-16T08:52:56;9.50;99.90
20732;DHT22;10527;52.124;5.196;2023-04-16T08:55:45;9.60;99.90
20732;DHT22;10527;52.124;5.196;2023-04-16T08:58:18;9.70;99.90
20732;DHT22;10527;52.124;5.196;2023-04-16T09:00:49;9.50;99.90
20732;DHT22;10527;52.124;5.196;2023-04-16T09:03:16;9.50;99.90
20732;DHT22;10527;52.124;5.196;2023-04-16T09:05:48;9.60;99.90
20732;DHT22;10527;52.124;5.196;2023-04-16T09:08:16;9.60;99.90
20732;DHT22;10527;52.124;5.196;2023-04-16T09:10:43;9.60;99.90
20732;DHT22;10527;52.124;5.196;2023-04-16T09:13:11;9.60;99.90
20732;DHT22;10527;52.124;5.196;2023-04-16T09:15:42;9.60;99.90
20732;DHT22;10527;52.124;5.196;2023-04-16T09:18:09;9.70;99.90
20732;DHT22;10527;52.124;5.196;2023-04-16T09:20:38;9.70;99.90
20732;DHT22;10527;52.124;5.196;2023-04-16T09:23:05;9.70;99.90
20732;DHT22;10527;52.124;5.196;2023-04-16T09:25:33;9.70;99.90
20732;DHT22;10527;52.124;5.196;2023-04-16T09:28:00;9.70;99.90
20732;DHT22;10527;52.124;5.196;2023-04-16T09:30:27;9.70;99.90
20732;DHT22;10527;52.124;5.196;2023-04-16T09:33:18;9.70;99.90
20732;DHT22;10527;52.124;5.196;2023-04-16T09:35:50;9.70;99.90
20732;DHT22;10527;52.124;5.196;2023-04-16T09:38:19;9.70;99.90
20732;DHT22;10527;52.124;5.196;2023-04-16T09:40:46;9.70;99.90
20732;DHT22;10527;52.124;5.196;2023-04-16T09:43:15;9.70;99.90
20732;DHT22;10527;52.124;5.196;2023-04-16T09:45:54;9.70;99.90
20732;DHT22;10527;52.124;5.196;2023-04-16T09:48:31;9.70;99.90
20732;DHT22;10527;52.124;5.196;2023-04-16T09:51:05;9.80;99.90
20732;DHT22;10527;52.124;5.196;2023-04-16T09:53:35;9.90;99.90
20732;DHT22;10527;52.124;5.196;2023-04-16T09:56:04;9.90;99.90
20732;DHT22;10527;52.124;5.196;2023-04-16T09:58:35;9.90;99.90
20732;DHT22;10527;52.124;5.196;2023-04-16T10:01:08;9.90;99.90
20732;DHT22;10527;52.124;5.196;2023-04-16T10:03:40;9.80;99.90
20732;DHT22;10527;52.124;5.196;2023-04-16T10:06:14;9.80;99.90
20732;DHT22;10527;52.124;5.196;2023-04-16T10:08:53;9.90;99.90
20732;DHT22;10527;52.124;5.196;2023-04-16T10:11:23;9.90;99.90
20732;DHT22;10527;52.124;5.196;2023-04-16T10:13:50;9.90;99.90
20732;DHT22;10527;52.124;5.196;2023-04-16T10:16:18;10.00;99.90
20732;DHT22;10527;52.124;5.196;2023-04-16T10:18:48;10.10;99.90
20732;DHT22;10527;52.124;5.196;2023-04-16T10:21:15;10.10;99.90
20732;DHT22;10527;52.124;5.196;2023-04-16T10:23:42;10.00;99.90
20732;DHT22;10527;52.124;5.196;2023-04-16T10:26:09;10.10;99.90
20732;DHT22;10527;52.124;5.196;2023-04-16T10:28:36;10.10;99.90
20732;DHT22;10527;52.124;5.196;2023-04-16T10:31:06;10.30;99.90
20732;DHT22;10527;52.124;5.196;2023-04-16T10:33:36;10.30;99.90
20732;DHT22;10527;52.124;5.196;2023-04-16T10:36:10;10.40;99.90
20732;DHT22;10527;52.124;5.196;2023-04-16T10:38:44;10.10;99.90
20732;DHT22;10527;52.124;5.196;2023-04-16T10:41:14;10.10;99.90
20732;DHT22;10527;52.124;5.196;2023-04-16T10:46:22;10.00;99.90
20732;DHT22;10527;52.124;5.196;2023-04-16T10:49:02;10.10;99.90
20732;DHT22;10527;52.124;5.196;2023-04-16T10:51:53;10.10;99.90
20732;DHT22;10527;52.124;5.196;2023-04-16T10:57:07;10.20;99.90
20732;DHT22;10527;52.124;5.196;2023-04-16T10:59:37;10.20;99.90
20732;DHT22;10527;52.124;5.196;2023-04-16T11:02:14;10.20;99.90
20732;DHT22;10527;52.124;5.196;2023-04-16T11:04:50;10.20;99.90
20732;DHT22;10527;52.124;5.196;2023-04-16T11:07:31;10.30;99.90
20732;DHT22;10527;52.124;5.196;2023-04-16T11:10:03;10.30;99.90
20732;DHT22;10527;52.124;5.196;2023-04-16T11:12:39;10.40;99.90
20732;DHT22;10527;52.124;5.196;2023-04-16T11:15:12;10.30;99.90
20732;DHT22;10527;52.124;5.196;2023-04-16T11:17:46;10.40;99.90
20732;DHT22;10527;52.124;5.196;2023-04-16T11:20:22;10.50;99.90
20732;DHT22;10527;52.124;5.196;2023-04-16T11:22:52;10.50;99.90
20732;DHT22;10527;52.124;5.196;2023-04-16T11:25:25;10.40;99.90
20732;DHT22;10527;52.124;5.196;2023-04-16T11:27:55;10.50;99.90
20732;DHT22;10527;52.124;5.196;2023-04-16T11:30:38;10.50;99.90
20732;DHT22;10527;52.124;5.196;2023-04-16T11:33:08;10.60;99.90
20732;DHT22;10527;52.124;5.196;2023-04-16T11:35:39;10.60;99.90
20732;DHT22;10527;52.124;5.196;2023-04-16T11:38:06;10.50;99.90
20732;DHT22;10527;52.124;5.196;2023-04-16T11:40:34;10.50;99.90
20732;DHT22;10527;52.124;5.196;2023-04-16T11:43:14;10.60;99.90
20732;DHT22;10527;52.124;5.196;2023-04-16T11:45:57;10.50;99.90
20732;DHT22;10527;52.124;5.196;2023-04-16T11:48:33;10.40;99.90
20732;DHT22;10527;52.124;5.196;2023-04-16T11:51:12;10.50;99.90
20732;DHT22;10527;52.124;5.196;2023-04-16T11:53:50;10.60;99.90
20732;DHT22;10527;52.124;5.196;2023-04-16T11:56:28;10.70;99.90
20732;DHT22;10527;52.124;5.196;2023-04-16T11:59:13;10.70;99.90
20732;DHT22;10527;52.124;5.196;2023-04-16T12:01:45;10.70;99.90
20732;DHT22;10527;52.124;5.196;2023-04-16T12:04:16;10.60;99.90
20732;DHT22;10527;52.124;5.196;2023-04-16T12:07:08;10.60;99.90
20732;DHT22;10527;52.124;5.196;2023-04-16T12:09:41;10.60;99.90
20732;DHT22;10527;52.124;5.196;2023-04-16T12:12:29;10.60;99.90
20732;DHT22;10527;52.124;5.196;2023-04-16T12:14:58;10.50;99.90
20732;DHT22;10527;52.124;5.196;2023-04-16T12:17:33;10.50;99.90
20732;DHT22;10527;52.124;5.196;2023-04-16T12:20:03;10.40;99.90
20732;DHT22;10527;52.124;5.196;2023-04-16T12:22:37;10.50;99.90
20732;DHT22;10527;52.124;5.196;2023-04-16T12:25:16;10.40;99.90
20732;DHT22;10527;52.124;5.196;2023-04-16T12:27:44;10.60;99.90
20732;DHT22;10527;52.124;5.196;2023-04-16T12:30:21;10.50;99.90
20732;DHT22;10527;52.124;5.196;2023-04-16T12:32:51;10.50;99.90
20732;DHT22;10527;52.124;5.196;2023-04-16T12:35:40;10.50;99.90
20732;DHT22;10527;52.124;5.196;2023-04-16T12:38:08;10.70;99.90
20732;DHT22;10527;52.124;5.196;2023-04-16T12:40:36;10.70;99.90
20732;DHT22;10527;52.124;5.196;2023-04-16T12:43:03;10.70;99.90
20732;DHT22;10527;52.124;5.196;2023-04-16T12:45:30;10.70;99.90
20732;DHT22;10527;52.124;5.196;2023-04-16T12:47:57;10.80;99.90
20732;DHT22;10527;52.124;5.196;2023-04-16T12:50:24;10.70;99.90
20732;DHT22;10527;52.124;5.196;2023-04-16T12:52:51;10.80;99.90
20732;DHT22;10527;52.124;5.196;2023-04-16T12:55:18;10.90;99.90
20732;DHT22;10527;52.124;5.196;2023-04-16T12:57:45;11.00;99.90
20732;DHT22;10527;52.124;5.196;2023-04-16T13:00:14;11.10;99.90
20732;DHT22;10527;52.124;5.196;2023-04-16T13:02:41;11.10;99.90
20732;DHT22;10527;52.124;5.196;2023-04-16T13:05:08;11.20;99.90
20732;DHT22;10527;52.124;5.196;2023-04-16T13:07:35;11.30;99.90
20732;DHT22;10527;52.124;5.196;2023-04-16T13:10:02;11.30;99.90
20732;DHT22;10527;52.124;5.196;2023-04-16T13:12:30;11.40;99.90
20732;DHT22;10527;52.124;5.196;2023-04-16T13:14:58;11.50;99.90
20732;DHT22;10527;52.124;5.196;2023-04-16T13:17:25;11.50;99.90
20732;DHT22;10527;52.124;5.196;2023-04-16T13:19:51;11.60;99.90
20732;DHT22;10527;52.124;5.196;2023-04-16T13:22:18;11.70;99.90
20732;DHT22;10527;52.124;5.196;2023-04-16T13:24:45;11.80;99.90
20732;DHT22;10527;52.124;5.196;2023-04-16T13:27:12;11.60;99.90
20732;DHT22;10527;52.124;5.196;2023-04-16T13:29:41;11.60;99.90
20732;DHT22;10527;52.124;5.196;2023-04-16T13:32:08;11.60;99.90
20732;DHT22;10527;52.124;5.196;2023-04-16T13:34:35;11.60;99.90
20732;DHT22;10527;52.124;5.196;2023-04-16T13:37:02;11.50;99.90
20732;DHT22;10527;52.124;5.196;2023-04-16T13:39:29;11.50;99.90
20732;DHT22;10527;52.124;5.196;2023-04-16T13:41:56;11.60;99.90
20732;DHT22;10527;52.124;5.196;2023-04-16T13:44:22;11.60;99.90
20732;DHT22;10527;52.124;5.196;2023-04-16T13:46:49;11.60;99.90
20732;DHT22;10527;52.124;5.196;2023-04-16T13:49:17;11.70;99.90
20732;DHT22;10527;52.124;5.196;2023-04-16T13:51:45;11.70;99.90
20732;DHT22;10527;52.124;5.196;2023-04-16T13:54:12;11.60;99.90
20732;DHT22;10527;52.124;5.196;2023-04-16T13:56:39;11.60;99.90
20732;DHT22;10527;52.124;5.196;2023-04-16T13:59:06;11.60;99.90
20732;DHT22;10527;52.124;5.196;2023-04-16T14:01:34;11.60;99.90
20732;DHT22;10527;52.124;5.196;2023-04-16T14:04:01;11.70;99.90
20732;DHT22;10527;52.124;5.196;2023-04-16T14:06:33;11.70;99.90
20732;DHT22;10527;52.124;5.196;2023-04-16T14:09:00;11.70;99.90
20732;DHT22;10527;52.124;5.196;2023-04-16T14:11:27;11.70;99.90
20732;DHT22;10527;52.124;5.196;2023-04-16T14:13:55;11.70;99.90
20732;DHT22;10527;52.124;5.196;2023-04-16T14:16:22;11.60;99.90
20732;DHT22;10527;52.124;5.196;2023-04-16T14:18:49;11.70;99.90
20732;DHT22;10527;52.124;5.196;2023-04-16T14:21:17;11.70;99.90
20732;DHT22;10527;52.124;5.196;2023-04-16T14:23:44;11.70;99.90
20732;DHT22;10527;52.124;5.196;2023-04-16T14:26:11;11.70;99.90
20732;DHT22;10527;52.124;5.196;2023-04-16T14:28:38;11.70;99.90
20732;DHT22;10527;52.124;5.196;2023-04-16T14:31:06;11.70;99.90
20732;DHT22;10527;52.124;5.196;2023-04-16T14:33:33;11.70;99.90
20732;DHT22;10527;52.124;5.196;2023-04-16T14:35:59;11.60;99.90
20732;DHT22;10527;52.124;5.196;2023-04-16T14:38:29;11.60;99.90
20732;DHT22;10527;52.124;5.196;2023-04-16T14:40:56;11.70;99.90
20732;DHT22;10527;52.124;5.196;2023-04-16T14:43:23;11.70;99.90
20732;DHT22;10527;52.124;5.196;2023-04-16T14:45:57;11.60;99.90
20732;DHT22;10527;52.124;5.196;2023-04-16T14:48:25;11.50;99.90
20732;DHT22;10527;52.124;5.196;2023-04-16T14:50:52;11.50;99.90
20732;DHT22;10527;52.124;5.196;2023-04-16T14:53:21;11.70;99.90
20732;DHT22;10527;52.124;5.196;2023-04-16T14:55:50;11.60;99.90
20732;DHT22;10527;52.124;5.196;2023-04-16T14:58:17;11.50;99.90
20732;DHT22;10527;52.124;5.196;2023-04-16T15:00:45;11.50;99.90
20732;DHT22;10527;52.124;5.196;2023-04-16T15:03:12;11.50;99.90
20732;DHT22;10527;52.124;5.196;2023-04-16T15:05:39;11.40;99.90
20732;DHT22;10527;52.124;5.196;2023-04-16T15:08:06;11.50;99.90
20732;DHT22;10527;52.124;5.196;2023-04-16T15:10:33;11.50;99.90
20732;DHT22;10527;52.124;5.196;2023-04-16T15:13:00;11.50;99.90
20732;DHT22;10527;52.124;5.196;2023-04-16T15:15:28;11.50;99.90
20732;DHT22;10527;52.124;5.196;2023-04-16T15:17:55;11.60;99.90
20732;DHT22;10527;52.124;5.196;2023-04-16T15:20:23;11.50;99.90
20732;DHT22;10527;52.124;5.196;2023-04-16T15:22:51;11.50;99.90
20732;DHT22;10527;52.124;5.196;2023-04-16T15:25:18;11.50;99.90
20732;DHT22;10527;52.124;5.196;2023-04-16T15:27:45;11.40;99.90
20732;DHT22;10527;52.124;5.196;2023-04-16T15:30:12;11.50;99.90
20732;DHT22;10527;52.124;5.196;2023-04-16T15:32:39;11.40;99.90
20732;DHT22;10527;52.124;5.196;2023-04-16T15:35:06;11.40;99.90
20732;DHT22;10527;52.124;5.196;2023-04-16T15:37:36;11.30;99.90
20732;DHT22;10527;52.124;5.196;2023-04-16T15:40:09;11.40;99.90
20732;DHT22;10527;52.124;5.196;2023-04-16T15:42:36;11.40;99.90
20732;DHT22;10527;52.124;5.196;2023-04-16T15:45:04;11.30;99.90
20732;DHT22;10527;52.124;5.196;2023-04-16T15:47:31;11.20;99.90
20732;DHT22;10527;52.124;5.196;2023-04-16T15:49:58;11.10;99.90
20732;DHT22;10527;52.124;5.196;2023-04-16T15:52:25;11.20;99.90
20732;DHT22;10527;52.124;5.196;2023-04-16T15:54:52;11.20;99.90
20732;DHT22;10527;52.124;5.196;2023-04-16T15:57:19;11.30;99.90